sensor_id;sensor_type;location;lat;lon;timestamp;temperature;humidity
19817;DHT22;68323;49.394;8.434;2024-02-04T00:00:29;10.60;99.90
19817;DHT22;68323;49.394;8.434;2024-02-04T00:02:54;10.70;99.90
19817;DHT22;68323;49.394;8.434;2024-02-04T00:05:20;10.60;99.90
19817;DHT22;68323;49.394;8.434;2024-02-04T00:07:46;10.60;99.90
19817;DHT22;68323;49.394;8.434;2024-02-04T00:10:12;10.60;99.90
19817;DHT22;68323;49.394;8.434;2024-02-04T00:12:38;10.60;99.90
19817;DHT22;68323;49.394;8.434;2024-02-04T00:15:04;10.60;99.90
19817;DHT22;68323;49.394;8.434;2024-02-04T00:17:30;10.50;99.90
19817;DHT22;68323;49.394;8.434;2024-02-04T00:19:58;10.60;99.90
19817;DHT22;68323;49.394;8.434;2024-02-04T00:22:24;10.50;99.90
19817;DHT22;68323;49.394;8.434;2024-02-04T00:24:50;10.50;99.90
19817;DHT22;68323;49.394;8.434;2024-02-04T00:27:16;10.50;99.90
19817;DHT22;68323;49.394;8.434;2024-02-04T00:29:41;10.50;99.90
19817;DHT22;68323;49.394;8.434;2024-02-04T00:32:07;10.50;99.90
19817;DHT22;68323;49.394;8.434;2024-02-04T00:34:33;10.50;99.90
19817;DHT22;68323;49.394;8.434;2024-02-04T00:36:58;10.50;99.90
19817;DHT22;68323;49.394;8.434;2024-02-04T00:39:25;10.40;99.90
19817;DHT22;68323;49.394;8.434;2024-02-04T00:41:51;10.40;99.90
19817;DHT22;68323;49.394;8.434;2024-02-04T00:44:16;10.50;99.90
19817;DHT22;68323;49.394;8.434;2024-02-04T00:46:42;10.40;99.90
19817;DHT22;68323;49.394;8.434;2024-02-04T00:49:07;10.30;99.90
19817;DHT22;68323;49.394;8.434;2024-02-04T00:51:33;10.20;99.90
19817;DHT22;68323;49.394;8.434;2024-02-04T00:53:59;10.40;99.90
19817;DHT22;68323;49.394;8.434;2024-02-04T00:56:24;10.40;99.90
19817;DHT22;68323;49.394;8.434;2024-02-04T00:58:50;10.30;99.90
19817;DHT22;68323;49.394;8.434;2024-02-04T01:01:16;10.30;99.90
19817;DHT22;68323;49.394;8.434;2024-02-04T01:03:42;10.30;99.90
19817;DHT22;68323;49.394;8.434;2024-02-04T01:06:08;10.30;99.90
19817;DHT22;68323;49.394;8.434;2024-02-04T01:08:33;10.30;99.90
19817;DHT22;68323;49.394;8.434;2024-02-04T01:11:04;10.30;99.90
19817;DHT22;68323;49.394;8.434;2024-02-04T01:13:29;10.20;99.90
19817;DHT22;68323;49.394;8.434;2024-02-04T01:15:58;10.20;99.90
19817;DHT22;68323;49.394;8.434;2024-02-04T01:18:23;10.20;99.90
19817;DHT22;68323;49.394;8.434;2024-02-04T01:20:49;10.20;99.90
19817;DHT22;68323;49.394;8.434;2024-02-04T01:23:14;10.20;99.90
19817;DHT22;68323;49.394;8.434;2024-02-04T01:25:43;10.20;99.90
19817;DHT22;68323;49.394;8.434;2024-02-04T01:28:08;10.20;99.90
19817;DHT22;68323;49.394;8.434;2024-02-04T01:30:34;10.20;99.90
19817;DHT22;68323;49.394;8.434;2024-02-04T01:33:00;10.30;99.90
19817;DHT22;68323;49.394;8.434;2024-02-04T01:35:26;10.40;99.90
19817;DHT22;68323;49.394;8.434;2024-02-04T01:37:51;10.40;99.90
19817;DHT22;68323;49.394;8.434;2024-02-04T01:40:17;10.50;99.90
19817;DHT22;68323;49.394;8.434;2024-02-04T01:42:42;10.60;99.90
19817;DHT22;68323;49.394;8.434;2024-02-04T01:45:09;10.60;99.90
19817;DHT22;68323;49.394;8.434;2024-02-04T01:47:37;10.70;99.90
19817;DHT22;68323;49.394;8.434;2024-02-04T01:50:03;10.70;99.90
19817;DHT22;68323;49.394;8.434;2024-02-04T01:52:31;10.80;99.90
19817;DHT22;68323;49.394;8.434;2024-02-04T01:54:59;10.80;99.90
19817;DHT22;68323;49.394;8.434;2024-02-04T01:57:26;10.90;99.90
19817;DHT22;68323;49.394;8.434;2024-02-04T01:59:52;10.90;99.90
19817;DHT22;68323;49.394;8.434;2024-02-04T02:02:20;10.90;99.90
19817;DHT22;68323;49.394;8.434;2024-02-04T02:04:46;10.90;99.90
19817;DHT22;68323;49.394;8.434;2024-02-04T02:07:13;10.90;99.90
19817;DHT22;68323;49.394;8.434;2024-02-04T02:09:40;10.90;99.90
19817;DHT22;68323;49.394;8.434;2024-02-04T02:12:12;10.90;99.90
19817;DHT22;68323;49.394;8.434;2024-02-04T02:14:50;10.90;99.90
19817;DHT22;68323;49.394;8.434;2024-02-04T02:17:24;10.90;99.90
19817;DHT22;68323;49.394;8.434;2024-02-04T02:20:12;10.90;99.90
19817;DHT22;68323;49.394;8.434;2024-02-04T02:22:55;10.90;99.90
19817;DHT22;68323;49.394;8.434;2024-02-04T02:25:26;10.90;99.90
19817;DHT22;68323;49.394;8.434;2024-02-04T02:27:52;10.90;99.90
19817;DHT22;68323;49.394;8.434;2024-02-04T02:30:18;10.90;99.90
19817;DHT22;68323;49.394;8.434;2024-02-04T02:32:44;10.90;99.90
19817;DHT22;68323;49.394;8.434;2024-02-04T02:35:15;10.80;99.90
19817;DHT22;68323;49.394;8.434;2024-02-04T02:37:50;10.80;99.90
19817;DHT22;68323;49.394;8.434;2024-02-04T02:40:29;10.90;99.90
19817;DHT22;68323;49.394;8.434;2024-02-04T02:42:57;10.90;99.90
19817;DHT22;68323;49.394;8.434;2024-02-04T02:45:27;10.80;99.90
19817;DHT22;68323;49.394;8.434;2024-02-04T02:47:54;10.80;99.90
19817;DHT22;68323;49.394;8.434;2024-02-04T02:50:20;10.80;99.90
19817;DHT22;68323;49.394;8.434;2024-02-04T02:52:46;10.80;99.90
19817;DHT22;68323;49.394;8.434;2024-02-04T02:55:11;10.80;99.90
19817;DHT22;68323;49.394;8.434;2024-02-04T02:57:37;10.80;99.90
19817;DHT22;68323;49.394;8.434;2024-02-04T03:00:03;10.80;99.90
19817;DHT22;68323;49.394;8.434;2024-02-04T03:02:31;10.80;99.90
19817;DHT22;68323;49.394;8.434;2024-02-04T03:04:56;10.80;99.90
19817;DHT22;68323;49.394;8.434;2024-02-04T03:07:22;10.80;99.90
19817;DHT22;68323;49.394;8.434;2024-02-04T03:09:48;10.80;99.90
19817;DHT22;68323;49.394;8.434;2024-02-04T03:12:13;10.80;99.90
19817;DHT22;68323;49.394;8.434;2024-02-04T03:14:39;10.90;99.90
19817;DHT22;68323;49.394;8.434;2024-02-04T03:17:04;10.90;99.90
19817;DHT22;68323;49.394;8.434;2024-02-04T03:19:30;10.90;99.90
19817;DHT22;68323;49.394;8.434;2024-02-04T03:21:56;11.00;99.90
19817;DHT22;68323;49.394;8.434;2024-02-04T03:24:21;11.00;99.90
19817;DHT22;68323;49.394;8.434;2024-02-04T03:26:47;11.00;99.90
19817;DHT22;68323;49.394;8.434;2024-02-04T03:29:12;11.00;99.90
19817;DHT22;68323;49.394;8.434;2024-02-04T03:31:38;11.00;99.90
19817;DHT22;68323;49.394;8.434;2024-02-04T03:34:04;11.10;99.90
19817;DHT22;68323;49.394;8.434;2024-02-04T03:36:30;11.10;99.90
19817;DHT22;68323;49.394;8.434;2024-02-04T03:38:57;11.10;99.90
19817;DHT22;68323;49.394;8.434;2024-02-04T03:41:22;11.00;99.90
19817;DHT22;68323;49.394;8.434;2024-02-04T03:43:48;11.10;99.90
19817;DHT22;68323;49.394;8.434;2024-02-04T03:46:14;11.00;99.90
19817;DHT22;68323;49.394;8.434;2024-02-04T03:48:40;11.10;99.90
19817;DHT22;68323;49.394;8.434;2024-02-04T03:51:06;11.10;99.90
19817;DHT22;68323;49.394;8.434;2024-02-04T03:53:31;11.10;99.90
19817;DHT22;68323;49.394;8.434;2024-02-04T03:55:57;11.10;99.90
19817;DHT22;68323;49.394;8.434;2024-02-04T03:58:23;11.10;99.90
19817;DHT22;68323;49.394;8.434;2024-02-04T04:00:55;11.10;99.90
19817;DHT22;68323;49.394;8.434;2024-02-04T04:03:21;11.20;99.90
19817;DHT22;68323;49.394;8.434;2024-02-04T04:05:46;11.10;99.90
19817;DHT22;68323;49.394;8.434;2024-02-04T04:08:12;11.20;99.90
19817;DHT22;68323;49.394;8.434;2024-02-04T04:10:38;11.20;99.90
19817;DHT22;68323;49.394;8.434;2024-02-04T04:13:04;11.20;99.90
19817;DHT22;68323;49.394;8.434;2024-02-04T04:15:29;11.20;99.90
19817;DHT22;68323;49.394;8.434;2024-02-04T04:17:55;11.20;99.90
19817;DHT22;68323;49.394;8.434;2024-02-04T04:20:23;11.20;99.90
19817;DHT22;68323;49.394;8.434;2024-02-04T04:22:51;11.20;99.90
19817;DHT22;68323;49.394;8.434;2024-02-04T04:25:17;11.10;99.90
19817;DHT22;68323;49.394;8.434;2024-02-04T04:27:43;11.10;99.90
19817;DHT22;68323;49.394;8.434;2024-02-04T04:30:09;11.10;99.90
19817;DHT22;68323;49.394;8.434;2024-02-04T04:32:36;11.10;99.90
19817;DHT22;68323;49.394;8.434;2024-02-04T04:35:01;11.20;99.90
19817;DHT22;68323;49.394;8.434;2024-02-04T04:37:27;11.20;99.90
19817;DHT22;68323;49.394;8.434;2024-02-04T04:39:53;11.20;99.90
19817;DHT22;68323;49.394;8.434;2024-02-04T04:42:18;11.10;99.90
19817;DHT22;68323;49.394;8.434;2024-02-04T04:44:44;11.10;99.90
19817;DHT22;68323;49.394;8.434;2024-02-04T04:47:09;11.10;99.90
19817;DHT22;68323;49.394;8.434;2024-02-04T04:49:38;11.00;99.90
19817;DHT22;68323;49.394;8.434;2024-02-04T04:52:04;11.00;99.90
19817;DHT22;68323;49.394;8.434;2024-02-04T04:54:30;11.00;99.90
19817;DHT22;68323;49.394;8.434;2024-02-04T04:56:58;11.00;99.90
19817;DHT22;68323;49.394;8.434;2024-02-04T04:59:24;11.00;99.90
19817;DHT22;68323;49.394;8.434;2024-02-04T05:01:49;11.00;99.90
19817;DHT22;68323;49.394;8.434;2024-02-04T05:04:16;11.00;99.90
19817;DHT22;68323;49.394;8.434;2024-02-04T05:06:44;10.90;99.90
19817;DHT22;68323;49.394;8.434;2024-02-04T05:09:10;10.90;99.90
19817;DHT22;68323;49.394;8.434;2024-02-04T05:11:35;10.90;99.90
19817;DHT22;68323;49.394;8.434;2024-02-04T05:14:01;10.90;99.90
19817;DHT22;68323;49.394;8.434;2024-02-04T05:16:26;10.90;99.90
19817;DHT22;68323;49.394;8.434;2024-02-04T05:18:52;10.80;99.90
19817;DHT22;68323;49.394;8.434;2024-02-04T05:21:20;10.80;99.90
19817;DHT22;68323;49.394;8.434;2024-02-04T05:23:45;10.80;99.90
19817;DHT22;68323;49.394;8.434;2024-02-04T05:26:11;10.70;99.90
19817;DHT22;68323;49.394;8.434;2024-02-04T05:28:37;10.70;99.90
19817;DHT22;68323;49.394;8.434;2024-02-04T05:31:02;10.70;99.90
19817;DHT22;68323;49.394;8.434;2024-02-04T05:33:28;10.60;99.90
19817;DHT22;68323;49.394;8.434;2024-02-04T05:35:54;10.60;99.90
19817;DHT22;68323;49.394;8.434;2024-02-04T05:38:21;10.60;99.90
19817;DHT22;68323;49.394;8.434;2024-02-04T05:40:47;10.50;99.90
19817;DHT22;68323;49.394;8.434;2024-02-04T05:43:13;10.50;99.90
19817;DHT22;68323;49.394;8.434;2024-02-04T05:45:38;10.50;99.90
19817;DHT22;68323;49.394;8.434;2024-02-04T05:48:13;10.40;99.90
19817;DHT22;68323;49.394;8.434;2024-02-04T05:50:39;10.50;99.90
19817;DHT22;68323;49.394;8.434;2024-02-04T05:53:05;10.40;99.90
19817;DHT22;68323;49.394;8.434;2024-02-04T05:55:31;10.40;99.90
19817;DHT22;68323;49.394;8.434;2024-02-04T05:57:56;10.40;99.90
19817;DHT22;68323;49.394;8.434;2024-02-04T06:00:23;10.40;99.90
19817;DHT22;68323;49.394;8.434;2024-02-04T06:02:49;10.40;99.90
19817;DHT22;68323;49.394;8.434;2024-02-04T06:05:14;10.30;99.90
19817;DHT22;68323;49.394;8.434;2024-02-04T06:07:42;10.40;99.90
19817;DHT22;68323;49.394;8.434;2024-02-04T06:10:14;10.30;99.90
19817;DHT22;68323;49.394;8.434;2024-02-04T06:12:39;10.40;99.90
19817;DHT22;68323;49.394;8.434;2024-02-04T06:15:14;10.40;99.90
19817;DHT22;68323;49.394;8.434;2024-02-04T06:17:40;10.30;99.90
19817;DHT22;68323;49.394;8.434;2024-02-04T06:20:06;10.30;99.90
19817;DHT22;68323;49.394;8.434;2024-02-04T06:22:34;10.40;99.90
19817;DHT22;68323;49.394;8.434;2024-02-04T06:24:59;10.30;99.90
19817;DHT22;68323;49.394;8.434;2024-02-04T06:27:25;10.40;99.90
19817;DHT22;68323;49.394;8.434;2024-02-04T06:29:54;10.30;99.90
19817;DHT22;68323;49.394;8.434;2024-02-04T06:32:20;10.30;99.90
19817;DHT22;68323;49.394;8.434;2024-02-04T06:34:46;10.30;99.90
19817;DHT22;68323;49.394;8.434;2024-02-04T06:37:12;10.30;99.90
19817;DHT22;68323;49.394;8.434;2024-02-04T06:39:38;10.30;99.90
19817;DHT22;68323;49.394;8.434;2024-02-04T06:42:04;10.30;99.90
19817;DHT22;68323;49.394;8.434;2024-02-04T06:44:30;10.30;99.90
19817;DHT22;68323;49.394;8.434;2024-02-04T06:46:55;10.30;99.90
19817;DHT22;68323;49.394;8.434;2024-02-04T06:49:21;10.20;99.90
19817;DHT22;68323;49.394;8.434;2024-02-04T06:51:47;10.20;99.90
19817;DHT22;68323;49.394;8.434;2024-02-04T06:54:13;10.20;99.90
19817;DHT22;68323;49.394;8.434;2024-02-04T06:56:42;10.20;99.90
19817;DHT22;68323;49.394;8.434;2024-02-04T06:59:07;10.20;99.90
19817;DHT22;68323;49.394;8.434;2024-02-04T07:01:33;10.20;99.90
19817;DHT22;68323;49.394;8.434;2024-02-04T07:03:59;10.10;99.90
19817;DHT22;68323;49.394;8.434;2024-02-04T07:06:24;10.10;99.90
19817;DHT22;68323;49.394;8.434;2024-02-04T07:08:50;10.10;99.90
19817;DHT22;68323;49.394;8.434;2024-02-04T07:11:16;10.00;99.90
19817;DHT22;68323;49.394;8.434;2024-02-04T07:13:42;10.00;99.90
19817;DHT22;68323;49.394;8.434;2024-02-04T07:16:07;10.00;99.90
19817;DHT22;68323;49.394;8.434;2024-02-04T07:18:33;9.90;99.90
19817;DHT22;68323;49.394;8.434;2024-02-04T07:20:58;9.90;99.90
19817;DHT22;68323;49.394;8.434;2024-02-04T07:23:24;9.90;99.90
19817;DHT22;68323;49.394;8.434;2024-02-04T07:25:50;9.90;99.90
19817;DHT22;68323;49.394;8.434;2024-02-04T07:28:15;9.80;99.90
19817;DHT22;68323;49.394;8.434;2024-02-04T07:30:41;9.90;99.90
19817;DHT22;68323;49.394;8.434;2024-02-04T07:33:07;9.80;99.90
19817;DHT22;68323;49.394;8.434;2024-02-04T07:35:35;9.80;99.90
19817;DHT22;68323;49.394;8.434;2024-02-04T07:40:37;9.90;99.90
19817;DHT22;68323;49.394;8.434;2024-02-04T07:43:09;9.90;99.90
19817;DHT22;68323;49.394;8.434;2024-02-04T07:45:34;10.00;99.90
19817;DHT22;68323;49.394;8.434;2024-02-04T07:48:00;10.00;99.90
19817;DHT22;68323;49.394;8.434;2024-02-04T07:50:27;10.00;99.90
19817;DHT22;68323;49.394;8.434;2024-02-04T07:52:53;10.10;99.90
19817;DHT22;68323;49.394;8.434;2024-02-04T07:55:18;10.10;99.90
19817;DHT22;68323;49.394;8.434;2024-02-04T07:57:45;10.10;99.90
19817;DHT22;68323;49.394;8.434;2024-02-04T08:00:14;10.20;99.90
19817;DHT22;68323;49.394;8.434;2024-02-04T08:02:39;10.20;99.90
19817;DHT22;68323;49.394;8.434;2024-02-04T08:05:05;10.30;99.90
19817;DHT22;68323;49.394;8.434;2024-02-04T08:07:31;10.30;99.90
19817;DHT22;68323;49.394;8.434;2024-02-04T08:09:57;10.30;99.90
19817;DHT22;68323;49.394;8.434;2024-02-04T08:12:23;10.30;99.90
19817;DHT22;68323;49.394;8.434;2024-02-04T08:14:48;10.30;99.90
19817;DHT22;68323;49.394;8.434;2024-02-04T08:17:14;10.40;99.90
19817;DHT22;68323;49.394;8.434;2024-02-04T08:19:41;10.40;99.90
19817;DHT22;68323;49.394;8.434;2024-02-04T08:22:06;10.40;99.90
19817;DHT22;68323;49.394;8.434;2024-02-04T08:24:33;10.40;99.90
19817;DHT22;68323;49.394;8.434;2024-02-04T08:26:59;10.50;99.90
19817;DHT22;68323;49.394;8.434;2024-02-04T08:29:25;10.50;99.90
19817;DHT22;68323;49.394;8.434;2024-02-04T08:31:52;10.50;99.90
19817;DHT22;68323;49.394;8.434;2024-02-04T08:34:18;10.50;99.90
19817;DHT22;68323;49.394;8.434;2024-02-04T08:36:45;10.50;99.90
19817;DHT22;68323;49.394;8.434;2024-02-04T08:39:11;10.50;99.90
19817;DHT22;68323;49.394;8.434;2024-02-04T08:41:37;10.50;99.90
19817;DHT22;68323;49.394;8.434;2024-02-04T08:44:02;10.50;99.90
19817;DHT22;68323;49.394;8.434;2024-02-04T08:46:28;10.50;99.90
19817;DHT22;68323;49.394;8.434;2024-02-04T08:48:54;10.50;99.90
19817;DHT22;68323;49.394;8.434;2024-02-04T08:51:19;10.50;99.90
19817;DHT22;68323;49.394;8.434;2024-02-04T08:53:45;10.60;99.90
19817;DHT22;68323;49.394;8.434;2024-02-04T08:56:11;10.60;99.90
19817;DHT22;68323;49.394;8.434;2024-02-04T08:58:36;10.60;99.90
19817;DHT22;68323;49.394;8.434;2024-02-04T09:01:05;10.70;99.90
19817;DHT22;68323;49.394;8.434;2024-02-04T09:03:31;10.80;99.90
19817;DHT22;68323;49.394;8.434;2024-02-04T09:05:58;10.90;99.90
19817;DHT22;68323;49.394;8.434;2024-02-04T09:08:24;10.90;99.90
19817;DHT22;68323;49.394;8.434;2024-02-04T09:10:49;11.00;99.90
19817;DHT22;68323;49.394;8.434;2024-02-04T09:13:15;11.10;99.90
19817;DHT22;68323;49.394;8.434;2024-02-04T09:15:41;11.10;99.90
19817;DHT22;68323;49.394;8.434;2024-02-04T09:18:07;11.20;99.90
19817;DHT22;68323;49.394;8.434;2024-02-04T09:20:33;11.20;99.90
19817;DHT22;68323;49.394;8.434;2024-02-04T09:22:58;11.30;99.90
19817;DHT22;68323;49.394;8.434;2024-02-04T09:25:27;11.30;99.90
19817;DHT22;68323;49.394;8.434;2024-02-04T09:27:53;11.40;99.90
19817;DHT22;68323;49.394;8.434;2024-02-04T09:30:18;11.40;99.90
19817;DHT22;68323;49.394;8.434;2024-02-04T09:32:44;11.50;99.90
19817;DHT22;68323;49.394;8.434;2024-02-04T09:35:09;11.60;99.90
19817;DHT22;68323;49.394;8.434;2024-02-04T09:37:35;11.60;99.90
19817;DHT22;68323;49.394;8.434;2024-02-04T09:40:01;11.60;99.90
19817;DHT22;68323;49.394;8.434;2024-02-04T09:42:27;11.60;99.90
19817;DHT22;68323;49.394;8.434;2024-02-04T09:44:55;11.60;99.90
19817;DHT22;68323;49.394;8.434;2024-02-04T09:47:20;11.60;99.90
19817;DHT22;68323;49.394;8.434;2024-02-04T09:49:46;11.70;99.90
19817;DHT22;68323;49.394;8.434;2024-02-04T09:52:13;11.70;99.90
19817;DHT22;68323;49.394;8.434;2024-02-04T09:54:45;11.80;99.90
19817;DHT22;68323;49.394;8.434;2024-02-04T09:57:14;11.80;99.90
19817;DHT22;68323;49.394;8.434;2024-02-04T09:59:41;11.70;99.90
19817;DHT22;68323;49.394;8.434;2024-02-04T10:02:08;11.80;99.90
19817;DHT22;68323;49.394;8.434;2024-02-04T10:04:35;11.80;99.90
19817;DHT22;68323;49.394;8.434;2024-02-04T10:07:01;11.80;99.90
19817;DHT22;68323;49.394;8.434;2024-02-04T10:09:27;11.80;99.90
19817;DHT22;68323;49.394;8.434;2024-02-04T10:11:53;11.80;99.90
19817;DHT22;68323;49.394;8.434;2024-02-04T10:14:18;11.80;99.90
19817;DHT22;68323;49.394;8.434;2024-02-04T10:16:45;11.90;99.90
19817;DHT22;68323;49.394;8.434;2024-02-04T10:19:11;12.00;99.90
19817;DHT22;68323;49.394;8.434;2024-02-04T10:21:37;12.10;99.90
19817;DHT22;68323;49.394;8.434;2024-02-04T10:24:03;12.40;99.90
19817;DHT22;68323;49.394;8.434;2024-02-04T10:26:29;13.20;99.90
19817;DHT22;68323;49.394;8.434;2024-02-04T10:29:01;14.30;99.90
19817;DHT22;68323;49.394;8.434;2024-02-04T10:31:27;15.40;99.90
19817;DHT22;68323;49.394;8.434;2024-02-04T10:33:53;15.90;99.90
19817;DHT22;68323;49.394;8.434;2024-02-04T10:36:20;16.30;99.90
19817;DHT22;68323;49.394;8.434;2024-02-04T10:38:46;16.70;99.90
19817;DHT22;68323;49.394;8.434;2024-02-04T10:41:15;16.80;99.90
19817;DHT22;68323;49.394;8.434;2024-02-04T10:43:44;16.80;99.90
19817;DHT22;68323;49.394;8.434;2024-02-04T10:46:17;16.60;99.90
19817;DHT22;68323;49.394;8.434;2024-02-04T10:48:43;16.40;99.90
19817;DHT22;68323;49.394;8.434;2024-02-04T10:51:15;16.20;99.90
19817;DHT22;68323;49.394;8.434;2024-02-04T10:53:45;16.00;99.90
19817;DHT22;68323;49.394;8.434;2024-02-04T10:56:19;15.70;99.90
19817;DHT22;68323;49.394;8.434;2024-02-04T10:58:47;15.40;99.90
19817;DHT22;68323;49.394;8.434;2024-02-04T11:01:14;15.20;99.90
19817;DHT22;68323;49.394;8.434;2024-02-04T11:03:40;15.00;99.90
19817;DHT22;68323;49.394;8.434;2024-02-04T11:06:08;14.90;99.90
19817;DHT22;68323;49.394;8.434;2024-02-04T11:08:34;14.80;99.90
19817;DHT22;68323;49.394;8.434;2024-02-04T11:11:00;14.80;99.90
19817;DHT22;68323;49.394;8.434;2024-02-04T11:13:27;14.70;99.90
19817;DHT22;68323;49.394;8.434;2024-02-04T11:15:54;14.70;99.90
19817;DHT22;68323;49.394;8.434;2024-02-04T11:18:58;14.60;99.90
19817;DHT22;68323;49.394;8.434;2024-02-04T11:26:51;14.60;99.90
19817;DHT22;68323;49.394;8.434;2024-02-04T11:29:18;14.60;99.90
19817;DHT22;68323;49.394;8.434;2024-02-04T11:31:44;14.60;99.90
19817;DHT22;68323;49.394;8.434;2024-02-04T11:34:10;14.40;99.90
19817;DHT22;68323;49.394;8.434;2024-02-04T11:36:39;14.30;99.90
19817;DHT22;68323;49.394;8.434;2024-02-04T11:39:17;14.20;99.90
19817;DHT22;68323;49.394;8.434;2024-02-04T11:41:47;14.00;99.90
19817;DHT22;68323;49.394;8.434;2024-02-04T11:44:23;14.00;99.90
19817;DHT22;68323;49.394;8.434;2024-02-04T11:46:49;13.80;99.90
19817;DHT22;68323;49.394;8.434;2024-02-04T11:49:19;13.80;99.90
19817;DHT22;68323;49.394;8.434;2024-02-04T11:51:46;13.70;99.90
19817;DHT22;68323;49.394;8.434;2024-02-04T11:54:14;13.60;99.90
19817;DHT22;68323;49.394;8.434;2024-02-04T11:56:44;13.60;99.90
19817;DHT22;68323;49.394;8.434;2024-02-04T11:59:11;13.60;99.90
19817;DHT22;68323;49.394;8.434;2024-02-04T12:01:38;13.60;99.90
19817;DHT22;68323;49.394;8.434;2024-02-04T12:04:15;13.60;99.90
19817;DHT22;68323;49.394;8.434;2024-02-04T12:07:05;13.60;99.90
19817;DHT22;68323;49.394;8.434;2024-02-04T12:09:32;13.60;99.90
19817;DHT22;68323;49.394;8.434;2024-02-04T12:12:00;13.70;99.90
19817;DHT22;68323;49.394;8.434;2024-02-04T12:14:26;13.70;99.90
19817;DHT22;68323;49.394;8.434;2024-02-04T12:16:52;13.70;99.90
19817;DHT22;68323;49.394;8.434;2024-02-04T12:19:20;13.70;99.90
19817;DHT22;68323;49.394;8.434;2024-02-04T12:21:46;13.70;99.90
19817;DHT22;68323;49.394;8.434;2024-02-04T12:24:12;13.70;99.90
19817;DHT22;68323;49.394;8.434;2024-02-04T12:26:39;13.70;99.90
19817;DHT22;68323;49.394;8.434;2024-02-04T12:29:05;13.60;99.90
19817;DHT22;68323;49.394;8.434;2024-02-04T12:31:30;13.60;99.90
19817;DHT22;68323;49.394;8.434;2024-02-04T12:33:59;13.60;99.90
19817;DHT22;68323;49.394;8.434;2024-02-04T12:36:30;13.50;99.90
19817;DHT22;68323;49.394;8.434;2024-02-04T12:38:57;13.50;99.90
19817;DHT22;68323;49.394;8.434;2024-02-04T12:41:24;13.40;99.90
19817;DHT22;68323;49.394;8.434;2024-02-04T12:43:59;13.40;99.90
19817;DHT22;68323;49.394;8.434;2024-02-04T12:46:30;13.40;99.90
19817;DHT22;68323;49.394;8.434;2024-02-04T12:48:58;13.40;99.90
19817;DHT22;68323;49.394;8.434;2024-02-04T12:51:27;13.30;99.90
19817;DHT22;68323;49.394;8.434;2024-02-04T12:54:06;13.30;99.90
19817;DHT22;68323;49.394;8.434;2024-02-04T12:56:49;13.20;99.90
19817;DHT22;68323;49.394;8.434;2024-02-04T12:59:32;13.20;99.90
19817;DHT22;68323;49.394;8.434;2024-02-04T13:02:03;13.20;99.90
19817;DHT22;68323;49.394;8.434;2024-02-04T13:04:35;13.10;99.90
19817;DHT22;68323;49.394;8.434;2024-02-04T13:07:01;13.10;99.90
19817;DHT22;68323;49.394;8.434;2024-02-04T13:09:27;13.10;99.90
19817;DHT22;68323;49.394;8.434;2024-02-04T13:12:06;13.10;99.90
19817;DHT22;68323;49.394;8.434;2024-02-04T13:14:36;13.20;99.90
19817;DHT22;68323;49.394;8.434;2024-02-04T13:17:02;13.30;99.90
19817;DHT22;68323;49.394;8.434;2024-02-04T13:19:33;13.20;99.90
19817;DHT22;68323;49.394;8.434;2024-02-04T13:21:59;13.30;99.90
19817;DHT22;68323;49.394;8.434;2024-02-04T13:24:24;13.30;99.90
19817;DHT22;68323;49.394;8.434;2024-02-04T13:26:50;13.30;99.90
19817;DHT22;68323;49.394;8.434;2024-02-04T13:29:16;13.30;99.90
19817;DHT22;68323;49.394;8.434;2024-02-04T13:31:42;13.20;99.90
19817;DHT22;68323;49.394;8.434;2024-02-04T13:34:07;13.20;99.90
19817;DHT22;68323;49.394;8.434;2024-02-04T13:36:34;13.20;99.90
19817;DHT22;68323;49.394;8.434;2024-02-04T13:38:59;13.10;99.90
19817;DHT22;68323;49.394;8.434;2024-02-04T13:41:25;13.10;99.90
19817;DHT22;68323;49.394;8.434;2024-02-04T13:43:51;13.00;99.90
19817;DHT22;68323;49.394;8.434;2024-02-04T13:46:17;13.00;99.90
19817;DHT22;68323;49.394;8.434;2024-02-04T13:48:43;13.00;99.90
19817;DHT22;68323;49.394;8.434;2024-02-04T13:51:08;12.90;99.90
19817;DHT22;68323;49.394;8.434;2024-02-04T13:53:34;12.90;99.90
19817;DHT22;68323;49.394;8.434;2024-02-04T13:56:03;13.00;99.90
19817;DHT22;68323;49.394;8.434;2024-02-04T13:58:29;12.90;99.90
19817;DHT22;68323;49.394;8.434;2024-02-04T14:00:54;12.90;99.90
19817;DHT22;68323;49.394;8.434;2024-02-04T14:03:20;12.90;99.90
19817;DHT22;68323;49.394;8.434;2024-02-04T14:05:45;12.90;99.90
19817;DHT22;68323;49.394;8.434;2024-02-04T14:08:11;12.90;99.90
19817;DHT22;68323;49.394;8.434;2024-02-04T14:10:37;12.90;99.90
19817;DHT22;68323;49.394;8.434;2024-02-04T14:13:06;12.90;99.90
19817;DHT22;68323;49.394;8.434;2024-02-04T14:15:32;12.80;99.90
19817;DHT22;68323;49.394;8.434;2024-02-04T14:17:59;12.90;99.90
19817;DHT22;68323;49.394;8.434;2024-02-04T14:20:25;12.90;99.90
19817;DHT22;68323;49.394;8.434;2024-02-04T14:22:50;12.80;99.90
19817;DHT22;68323;49.394;8.434;2024-02-04T14:25:16;12.80;99.90
19817;DHT22;68323;49.394;8.434;2024-02-04T14:27:42;12.80;99.90
19817;DHT22;68323;49.394;8.434;2024-02-04T14:30:08;12.80;99.90
19817;DHT22;68323;49.394;8.434;2024-02-04T14:32:34;12.70;99.90
19817;DHT22;68323;49.394;8.434;2024-02-04T14:35:00;12.70;99.90
19817;DHT22;68323;49.394;8.434;2024-02-04T14:37:26;12.60;99.90
19817;DHT22;68323;49.394;8.434;2024-02-04T14:40:00;12.60;99.90
19817;DHT22;68323;49.394;8.434;2024-02-04T14:42:30;12.50;99.90
19817;DHT22;68323;49.394;8.434;2024-02-04T14:44:58;12.50;99.90
19817;DHT22;68323;49.394;8.434;2024-02-04T14:47:27;12.50;99.90
19817;DHT22;68323;49.394;8.434;2024-02-04T14:49:54;12.40;99.90
19817;DHT22;68323;49.394;8.434;2024-02-04T14:52:20;12.40;99.90
19817;DHT22;68323;49.394;8.434;2024-02-04T14:54:46;12.40;99.90
19817;DHT22;68323;49.394;8.434;2024-02-04T14:57:11;12.40;99.90
19817;DHT22;68323;49.394;8.434;2024-02-04T14:59:38;12.40;99.90
19817;DHT22;68323;49.394;8.434;2024-02-04T15:02:04;12.40;99.90
19817;DHT22;68323;49.394;8.434;2024-02-04T15:04:33;12.40;99.90
19817;DHT22;68323;49.394;8.434;2024-02-04T15:06:59;12.40;99.90
19817;DHT22;68323;49.394;8.434;2024-02-04T15:09:30;12.40;99.90
19817;DHT22;68323;49.394;8.434;2024-02-04T15:11:56;12.40;99.90
19817;DHT22;68323;49.394;8.434;2024-02-04T15:14:22;12.30;99.90
19817;DHT22;68323;49.394;8.434;2024-02-04T15:16:48;12.30;99.90
19817;DHT22;68323;49.394;8.434;2024-02-04T15:19:14;12.30;99.90
19817;DHT22;68323;49.394;8.434;2024-02-04T15:21:40;12.30;99.90
19817;DHT22;68323;49.394;8.434;2024-02-04T15:24:06;12.20;99.90
19817;DHT22;68323;49.394;8.434;2024-02-04T15:26:35;12.20;99.90
19817;DHT22;68323;49.394;8.434;2024-02-04T15:29:06;12.20;99.90
19817;DHT22;68323;49.394;8.434;2024-02-04T15:31:32;12.10;99.90
19817;DHT22;68323;49.394;8.434;2024-02-04T15:34:04;12.10;99.90
19817;DHT22;68323;49.394;8.434;2024-02-04T15:36:31;12.10;99.90
19817;DHT22;68323;49.394;8.434;2024-02-04T15:38:57;12.10;99.90